sensor_id;sensor_type;location;lat;lon;timestamp;P1;durP1;ratioP1;P2;durP2;ratioP2
13753;SDS011;6948;51.216;6.778;2022-11-15T00:00:06;10.00;;;8.67;;
13753;SDS011;6948;51.216;6.778;2022-11-15T00:02:33;12.13;;;8.00;;
13753;SDS011;6948;51.216;6.778;2022-11-15T00:05:02;10.33;;;8.43;;
13753;SDS011;6948;51.216;6.778;2022-11-15T00:07:37;10.20;;;8.83;;
13753;SDS011;6948;51.216;6.778;2022-11-15T00:10:03;10.17;;;7.50;;
13753;SDS011;6948;51.216;6.778;2022-11-15T00:12:36;10.63;;;8.10;;
13753;SDS011;6948;51.216;6.778;2022-11-15T00:15:02;8.63;;;7.57;;
13753;SDS011;6948;51.216;6.778;2022-11-15T00:17:29;9.50;;;7.57;;
13753;SDS011;6948;51.216;6.778;2022-11-15T00:19:55;9.73;;;8.10;;
13753;SDS011;6948;51.216;6.778;2022-11-15T00:22:23;9.73;;;8.37;;
13753;SDS011;6948;51.216;6.778;2022-11-15T00:25:10;9.67;;;8.20;;
13753;SDS011;6948;51.216;6.778;2022-11-15T00:27:39;11.33;;;8.40;;
13753;SDS011;6948;51.216;6.778;2022-11-15T00:30:05;10.20;;;8.37;;
13753;SDS011;6948;51.216;6.778;2022-11-15T00:35:20;11.33;;;8.27;;
13753;SDS011;6948;51.216;6.778;2022-11-15T00:37:47;9.80;;;8.47;;
13753;SDS011;6948;51.216;6.778;2022-11-15T00:40:22;10.57;;;8.33;;
13753;SDS011;6948;51.216;6.778;2022-11-15T00:42:51;14.03;;;8.80;;
13753;SDS011;6948;51.216;6.778;2022-11-15T00:45:17;12.73;;;8.73;;
13753;SDS011;6948;51.216;6.778;2022-11-15T00:47:44;10.47;;;8.03;;
13753;SDS011;6948;51.216;6.778;2022-11-15T00:50:11;9.40;;;7.50;;
13753;SDS011;6948;51.216;6.778;2022-11-15T00:52:40;9.40;;;8.03;;
13753;SDS011;6948;51.216;6.778;2022-11-15T01:04:22;11.20;;;7.33;;
13753;SDS011;6948;51.216;6.778;2022-11-15T01:19:31;8.87;;;7.30;;
13753;SDS011;6948;51.216;6.778;2022-11-15T01:47:15;9.10;;;7.10;;
13753;SDS011;6948;51.216;6.778;2022-11-15T02:21:21;9.50;;;7.30;;
13753;SDS011;6948;51.216;6.778;2022-11-15T02:28:16;9.50;;;7.53;;
13753;SDS011;6948;51.216;6.778;2022-11-15T02:31:35;8.20;;;6.90;;
13753;SDS011;6948;51.216;6.778;2022-11-15T02:36:29;9.23;;;6.97;;
13753;SDS011;6948;51.216;6.778;2022-11-15T02:39:19;8.83;;;7.33;;
13753;SDS011;6948;51.216;6.778;2022-11-15T02:42:30;10.73;;;7.10;;
13753;SDS011;6948;51.216;6.778;2022-11-15T02:45:19;11.30;;;7.47;;
13753;SDS011;6948;51.216;6.778;2022-11-15T02:51:25;8.07;;;7.00;;
13753;SDS011;6948;51.216;6.778;2022-11-15T02:53:57;10.83;;;7.90;;
13753;SDS011;6948;51.216;6.778;2022-11-15T02:56:53;9.03;;;7.30;;
13753;SDS011;6948;51.216;6.778;2022-11-15T03:06:09;9.13;;;7.60;;
13753;SDS011;6948;51.216;6.778;2022-11-15T03:15:21;9.00;;;7.47;;
13753;SDS011;6948;51.216;6.778;2022-11-15T03:21:39;10.47;;;7.73;;
13753;SDS011;6948;51.216;6.778;2022-11-15T03:24:27;10.07;;;7.43;;
13753;SDS011;6948;51.216;6.778;2022-11-15T03:27:00;11.40;;;8.20;;
13753;SDS011;6948;51.216;6.778;2022-11-15T03:29:44;9.10;;;7.40;;
13753;SDS011;6948;51.216;6.778;2022-11-15T03:35:41;9.80;;;7.30;;
13753;SDS011;6948;51.216;6.778;2022-11-15T03:38:29;11.40;;;7.63;;
13753;SDS011;6948;51.216;6.778;2022-11-15T03:41:35;8.20;;;7.30;;
13753;SDS011;6948;51.216;6.778;2022-11-15T03:44:04;9.47;;;7.07;;
13753;SDS011;6948;51.216;6.778;2022-11-15T04:03:03;8.70;;;6.90;;
13753;SDS011;6948;51.216;6.778;2022-11-15T04:05:47;8.10;;;7.30;;
13753;SDS011;6948;51.216;6.778;2022-11-15T04:14:27;8.83;;;7.40;;
13753;SDS011;6948;51.216;6.778;2022-11-15T04:16:53;8.07;;;7.27;;
13753;SDS011;6948;51.216;6.778;2022-11-15T04:19:31;9.10;;;7.00;;
13753;SDS011;6948;51.216;6.778;2022-11-15T04:26:59;7.77;;;6.97;;
13753;SDS011;6948;51.216;6.778;2022-11-15T04:28:47;8.33;;;7.03;;
13753;SDS011;6948;51.216;6.778;2022-11-15T04:31:33;8.63;;;6.70;;
13753;SDS011;6948;51.216;6.778;2022-11-15T04:34:00;8.13;;;7.33;;
13753;SDS011;6948;51.216;6.778;2022-11-15T04:36:28;8.00;;;6.60;;
13753;SDS011;6948;51.216;6.778;2022-11-15T04:39:15;9.43;;;7.33;;
13753;SDS011;6948;51.216;6.778;2022-11-15T04:41:47;7.90;;;6.83;;
13753;SDS011;6948;51.216;6.778;2022-11-15T04:45:00;7.20;;;6.50;;
13753;SDS011;6948;51.216;6.778;2022-11-15T04:57:35;8.20;;;7.40;;
13753;SDS011;6948;51.216;6.778;2022-11-15T05:03:00;10.37;;;7.23;;
13753;SDS011;6948;51.216;6.778;2022-11-15T05:31:42;9.20;;;7.27;;
13753;SDS011;6948;51.216;6.778;2022-11-15T05:34:27;7.97;;;7.00;;
13753;SDS011;6948;51.216;6.778;2022-11-15T05:36:55;8.00;;;7.20;;
13753;SDS011;6948;51.216;6.778;2022-11-15T05:42:25;8.13;;;7.33;;
13753;SDS011;6948;51.216;6.778;2022-11-15T05:51:15;9.13;;;7.03;;
13753;SDS011;6948;51.216;6.778;2022-11-15T05:56:31;8.53;;;7.10;;
13753;SDS011;6948;51.216;6.778;2022-11-15T05:59:05;9.00;;;6.73;;
13753;SDS011;6948;51.216;6.778;2022-11-15T06:01:45;9.50;;;6.70;;
13753;SDS011;6948;51.216;6.778;2022-11-15T06:04:26;7.37;;;6.63;;
13753;SDS011;6948;51.216;6.778;2022-11-15T06:07:33;7.23;;;6.40;;
13753;SDS011;6948;51.216;6.778;2022-11-15T06:10:32;8.97;;;7.13;;
13753;SDS011;6948;51.216;6.778;2022-11-15T06:19:40;9.27;;;7.33;;
13753;SDS011;6948;51.216;6.778;2022-11-15T06:22:08;8.50;;;7.67;;
13753;SDS011;6948;51.216;6.778;2022-11-15T06:27:38;10.00;;;6.90;;
13753;SDS011;6948;51.216;6.778;2022-11-15T06:27:43;7.57;;;6.77;;
13753;SDS011;6948;51.216;6.778;2022-11-15T06:30:08;7.80;;;6.50;;
13753;SDS011;6948;51.216;6.778;2022-11-15T06:33:13;7.07;;;5.90;;
13753;SDS011;6948;51.216;6.778;2022-11-15T06:35:42;7.90;;;5.90;;
13753;SDS011;6948;51.216;6.778;2022-11-15T06:40:54;6.20;;;5.60;;
13753;SDS011;6948;51.216;6.778;2022-11-15T06:43:39;6.23;;;5.63;;
13753;SDS011;6948;51.216;6.778;2022-11-15T06:49:07;6.83;;;5.90;;
13753;SDS011;6948;51.216;6.778;2022-11-15T06:51:36;7.50;;;6.80;;
13753;SDS011;6948;51.216;6.778;2022-11-15T06:57:51;7.20;;;5.87;;
13753;SDS011;6948;51.216;6.778;2022-11-15T07:00:44;5.93;;;5.40;;
13753;SDS011;6948;51.216;6.778;2022-11-15T07:03:10;5.33;;;4.83;;
13753;SDS011;6948;51.216;6.778;2022-11-15T07:14:59;6.60;;;4.90;;
13753;SDS011;6948;51.216;6.778;2022-11-15T07:17:25;5.60;;;5.00;;
13753;SDS011;6948;51.216;6.778;2022-11-15T07:20:50;7.23;;;5.07;;
13753;SDS011;6948;51.216;6.778;2022-11-15T07:23:15;5.43;;;4.90;;
13753;SDS011;6948;51.216;6.778;2022-11-15T07:26:05;5.87;;;4.67;;
13753;SDS011;6948;51.216;6.778;2022-11-15T07:29:07;6.27;;;4.60;;
13753;SDS011;6948;51.216;6.778;2022-11-15T07:31:33;7.10;;;4.87;;
13753;SDS011;6948;51.216;6.778;2022-11-15T07:34:15;7.27;;;4.70;;
13753;SDS011;6948;51.216;6.778;2022-11-15T07:36:41;5.43;;;4.50;;
13753;SDS011;6948;51.216;6.778;2022-11-15T07:39:07;4.73;;;4.23;;
13753;SDS011;6948;51.216;6.778;2022-11-15T07:41:53;4.67;;;4.23;;
13753;SDS011;6948;51.216;6.778;2022-11-15T07:44:45;4.70;;;4.20;;
13753;SDS011;6948;51.216;6.778;2022-11-15T07:47:11;5.03;;;3.83;;
13753;SDS011;6948;51.216;6.778;2022-11-15T07:51:12;5.37;;;3.90;;
13753;SDS011;6948;51.216;6.778;2022-11-15T07:52:30;5.87;;;3.50;;
13753;SDS011;6948;51.216;6.778;2022-11-15T07:54:56;5.17;;;3.83;;
13753;SDS011;6948;51.216;6.778;2022-11-15T07:57:25;4.93;;;3.60;;
13753;SDS011;6948;51.216;6.778;2022-11-15T08:45:07;4.33;;;3.13;;
13753;SDS011;6948;51.216;6.778;2022-11-15T08:52:03;3.67;;;3.33;;
13753;SDS011;6948;51.216;6.778;2022-11-15T08:53:46;5.57;;;3.50;;
13753;SDS011;6948;51.216;6.778;2022-11-15T08:59:31;4.70;;;3.00;;
13753;SDS011;6948;51.216;6.778;2022-11-15T09:09:30;6.13;;;2.43;;
13753;SDS011;6948;51.216;6.778;2022-11-15T09:18:23;7.80;;;4.10;;
13753;SDS011;6948;51.216;6.778;2022-11-15T09:21:39;3.50;;;2.30;;
13753;SDS011;6948;51.216;6.778;2022-11-15T09:25:04;4.50;;;2.20;;
13753;SDS011;6948;51.216;6.778;2022-11-15T09:28:00;3.13;;;2.00;;
13753;SDS011;6948;51.216;6.778;2022-11-15T10:04:27;3.70;;;1.40;;
13753;SDS011;6948;51.216;6.778;2022-11-15T10:24:57;2.90;;;1.70;;
13753;SDS011;6948;51.216;6.778;2022-11-15T10:27:24;4.00;;;1.80;;
13753;SDS011;6948;51.216;6.778;2022-11-15T10:29:50;3.97;;;1.93;;
13753;SDS011;6948;51.216;6.778;2022-11-15T10:32:17;6.73;;;1.70;;
13753;SDS011;6948;51.216;6.778;2022-11-15T10:34:44;4.00;;;1.70;;
13753;SDS011;6948;51.216;6.778;2022-11-15T10:37:10;4.73;;;1.37;;
13753;SDS011;6948;51.216;6.778;2022-11-15T10:39:36;2.70;;;1.50;;
13753;SDS011;6948;51.216;6.778;2022-11-15T10:42:25;4.20;;;1.50;;
13753;SDS011;6948;51.216;6.778;2022-11-15T10:44:48;3.10;;;1.47;;
13753;SDS011;6948;51.216;6.778;2022-11-15T10:47:20;4.23;;;1.77;;
13753;SDS011;6948;51.216;6.778;2022-11-15T10:50:04;2.67;;;1.40;;
13753;SDS011;6948;51.216;6.778;2022-11-15T10:52:31;4.47;;;1.60;;
13753;SDS011;6948;51.216;6.778;2022-11-15T10:55:03;4.87;;;1.90;;
13753;SDS011;6948;51.216;6.778;2022-11-15T10:57:32;4.00;;;1.80;;
13753;SDS011;6948;51.216;6.778;2022-11-15T11:00:01;3.63;;;1.57;;
13753;SDS011;6948;51.216;6.778;2022-11-15T11:07:55;2.57;;;1.30;;
13753;SDS011;6948;51.216;6.778;2022-11-15T11:10:21;3.43;;;1.57;;
13753;SDS011;6948;51.216;6.778;2022-11-15T11:12:47;3.40;;;1.30;;
13753;SDS011;6948;51.216;6.778;2022-11-15T11:15:14;3.60;;;1.50;;
13753;SDS011;6948;51.216;6.778;2022-11-15T11:17:46;4.33;;;1.77;;
13753;SDS011;6948;51.216;6.778;2022-11-15T11:22:57;3.10;;;1.70;;
13753;SDS011;6948;51.216;6.778;2022-11-15T11:33:56;3.57;;;1.23;;
13753;SDS011;6948;51.216;6.778;2022-11-15T11:36:40;2.50;;;1.20;;
13753;SDS011;6948;51.216;6.778;2022-11-15T11:39:17;4.97;;;1.50;;
13753;SDS011;6948;51.216;6.778;2022-11-15T11:47:11;2.40;;;1.30;;
13753;SDS011;6948;51.216;6.778;2022-11-15T11:49:42;4.03;;;1.40;;
13753;SDS011;6948;51.216;6.778;2022-11-15T11:54:53;3.83;;;1.40;;
13753;SDS011;6948;51.216;6.778;2022-11-15T11:57:24;2.47;;;1.00;;
13753;SDS011;6948;51.216;6.778;2022-11-15T11:59:54;3.90;;;1.30;;
13753;SDS011;6948;51.216;6.778;2022-11-15T12:02:31;5.07;;;1.50;;
13753;SDS011;6948;51.216;6.778;2022-11-15T12:05:03;4.10;;;1.30;;
13753;SDS011;6948;51.216;6.778;2022-11-15T12:07:31;4.00;;;1.60;;
13753;SDS011;6948;51.216;6.778;2022-11-15T12:09:58;3.57;;;1.40;;
13753;SDS011;6948;51.216;6.778;2022-11-15T12:12:44;3.17;;;1.30;;
13753;SDS011;6948;51.216;6.778;2022-11-15T12:17:47;5.00;;;1.47;;
13753;SDS011;6948;51.216;6.778;2022-11-15T12:20:19;3.03;;;1.20;;
13753;SDS011;6948;51.216;6.778;2022-11-15T12:22:47;6.13;;;1.23;;
13753;SDS011;6948;51.216;6.778;2022-11-15T12:28:08;5.27;;;1.40;;
13753;SDS011;6948;51.216;6.778;2022-11-15T12:30:42;3.23;;;1.47;;
13753;SDS011;6948;51.216;6.778;2022-11-15T12:33:28;5.47;;;1.37;;
13753;SDS011;6948;51.216;6.778;2022-11-15T12:35:57;4.93;;;1.50;;
13753;SDS011;6948;51.216;6.778;2022-11-15T12:41:12;4.77;;;1.57;;
13753;SDS011;6948;51.216;6.778;2022-11-15T12:43:39;3.93;;;1.30;;
13753;SDS011;6948;51.216;6.778;2022-11-15T12:46:10;4.07;;;1.33;;
13753;SDS011;6948;51.216;6.778;2022-11-15T12:51:16;3.50;;;1.47;;
13753;SDS011;6948;51.216;6.778;2022-11-15T12:53:43;4.37;;;1.60;;
13753;SDS011;6948;51.216;6.778;2022-11-15T12:56:18;2.13;;;1.10;;
13753;SDS011;6948;51.216;6.778;2022-11-15T12:58:50;3.73;;;1.60;;
13753;SDS011;6948;51.216;6.778;2022-11-15T13:04:26;4.17;;;1.73;;
13753;SDS011;6948;51.216;6.778;2022-11-15T13:07:02;4.43;;;1.30;;
13753;SDS011;6948;51.216;6.778;2022-11-15T13:12:09;4.63;;;1.43;;
13753;SDS011;6948;51.216;6.778;2022-11-15T13:14:42;3.90;;;1.50;;
13753;SDS011;6948;51.216;6.778;2022-11-15T13:22:39;3.07;;;1.40;;
13753;SDS011;6948;51.216;6.778;2022-11-15T13:25:27;5.10;;;1.57;;
13753;SDS011;6948;51.216;6.778;2022-11-15T13:27:57;4.20;;;1.40;;
13753;SDS011;6948;51.216;6.778;2022-11-15T13:30:34;4.77;;;2.00;;
13753;SDS011;6948;51.216;6.778;2022-11-15T13:33:05;4.43;;;1.40;;
13753;SDS011;6948;51.216;6.778;2022-11-15T13:35:33;3.67;;;1.63;;
13753;SDS011;6948;51.216;6.778;2022-11-15T13:38:03;4.03;;;1.50;;
13753;SDS011;6948;51.216;6.778;2022-11-15T13:40:34;2.83;;;1.30;;
13753;SDS011;6948;51.216;6.778;2022-11-15T13:43:11;2.77;;;1.33;;
13753;SDS011;6948;51.216;6.778;2022-11-15T13:45:39;3.90;;;1.53;;
13753;SDS011;6948;51.216;6.778;2022-11-15T13:48:08;3.33;;;1.43;;
13753;SDS011;6948;51.216;6.778;2022-11-15T13:50:35;3.40;;;1.33;;
13753;SDS011;6948;51.216;6.778;2022-11-15T13:53:04;3.20;;;1.10;;
13753;SDS011;6948;51.216;6.778;2022-11-15T13:55:31;3.83;;;1.40;;
13753;SDS011;6948;51.216;6.778;2022-11-15T13:57:59;4.17;;;1.30;;
13753;SDS011;6948;51.216;6.778;2022-11-15T14:03:15;5.07;;;1.80;;
13753;SDS011;6948;51.216;6.778;2022-11-15T14:05:41;4.30;;;1.60;;
13753;SDS011;6948;51.216;6.778;2022-11-15T14:10:47;3.80;;;2.00;;
13753;SDS011;6948;51.216;6.778;2022-11-15T14:13:30;9.77;;;5.30;;
13753;SDS011;6948;51.216;6.778;2022-11-15T14:18:43;5.43;;;2.10;;
13753;SDS011;6948;51.216;6.778;2022-11-15T14:21:10;3.37;;;2.00;;
13753;SDS011;6948;51.216;6.778;2022-11-15T14:23:36;5.57;;;2.20;;
13753;SDS011;6948;51.216;6.778;2022-11-15T14:26:02;5.50;;;1.90;;
13753;SDS011;6948;51.216;6.778;2022-11-15T14:28:29;3.47;;;1.93;;
13753;SDS011;6948;51.216;6.778;2022-11-15T14:30:58;3.53;;;1.80;;
13753;SDS011;6948;51.216;6.778;2022-11-15T14:36:11;3.20;;;1.80;;
13753;SDS011;6948;51.216;6.778;2022-11-15T14:38:38;4.47;;;2.10;;
13753;SDS011;6948;51.216;6.778;2022-11-15T14:41:04;4.20;;;2.33;;
13753;SDS011;6948;51.216;6.778;2022-11-15T14:43:31;2.70;;;2.10;;
13753;SDS011;6948;51.216;6.778;2022-11-15T14:46:04;2.60;;;1.90;;
13753;SDS011;6948;51.216;6.778;2022-11-15T14:48:30;3.73;;;2.10;;
13753;SDS011;6948;51.216;6.778;2022-11-15T14:50:57;3.37;;;2.50;;
13753;SDS011;6948;51.216;6.778;2022-11-15T14:53:23;4.70;;;2.40;;
13753;SDS011;6948;51.216;6.778;2022-11-15T14:55:49;5.43;;;2.40;;
13753;SDS011;6948;51.216;6.778;2022-11-15T14:58:15;2.53;;;2.10;;
13753;SDS011;6948;51.216;6.778;2022-11-15T15:00:41;3.50;;;2.30;;
13753;SDS011;6948;51.216;6.778;2022-11-15T15:03:07;4.77;;;2.30;;
13753;SDS011;6948;51.216;6.778;2022-11-15T15:05:38;5.27;;;2.20;;
13753;SDS011;6948;51.216;6.778;2022-11-15T15:08:05;4.27;;;2.20;;
13753;SDS011;6948;51.216;6.778;2022-11-15T15:10:32;4.03;;;2.50;;
13753;SDS011;6948;51.216;6.778;2022-11-15T15:12:59;4.17;;;2.30;;
13753;SDS011;6948;51.216;6.778;2022-11-15T15:15:25;4.83;;;2.40;;
13753;SDS011;6948;51.216;6.778;2022-11-15T15:17:52;3.30;;;2.50;;
13753;SDS011;6948;51.216;6.778;2022-11-15T15:20:18;4.07;;;2.00;;
13753;SDS011;6948;51.216;6.778;2022-11-15T15:22:44;4.30;;;2.40;;
13753;SDS011;6948;51.216;6.778;2022-11-15T15:25:15;4.20;;;2.20;;
13753;SDS011;6948;51.216;6.778;2022-11-15T15:27:45;7.50;;;2.40;;
13753;SDS011;6948;51.216;6.778;2022-11-15T15:30:11;3.77;;;2.30;;
13753;SDS011;6948;51.216;6.778;2022-11-15T15:32:37;4.00;;;2.10;;
13753;SDS011;6948;51.216;6.778;2022-11-15T15:35:03;4.20;;;2.60;;
13753;SDS011;6948;51.216;6.778;2022-11-15T15:37:29;2.47;;;2.13;;
13753;SDS011;6948;51.216;6.778;2022-11-15T15:39:58;3.57;;;2.10;;
13753;SDS011;6948;51.216;6.778;2022-11-15T15:42:24;5.80;;;2.10;;
13753;SDS011;6948;51.216;6.778;2022-11-15T15:44:50;3.93;;;2.37;;
13753;SDS011;6948;51.216;6.778;2022-11-15T15:47:20;4.53;;;2.30;;
13753;SDS011;6948;51.216;6.778;2022-11-15T15:49:47;4.30;;;2.00;;
13753;SDS011;6948;51.216;6.778;2022-11-15T15:52:13;4.70;;;2.20;;
13753;SDS011;6948;51.216;6.778;2022-11-15T15:54:39;4.40;;;2.10;;
13753;SDS011;6948;51.216;6.778;2022-11-15T15:57:06;4.20;;;2.17;;
13753;SDS011;6948;51.216;6.778;2022-11-15T15:59:32;2.83;;;2.20;;
13753;SDS011;6948;51.216;6.778;2022-11-15T16:01:58;3.50;;;2.00;;
13753;SDS011;6948;51.216;6.778;2022-11-15T16:04:24;5.30;;;2.20;;
13753;SDS011;6948;51.216;6.778;2022-11-15T16:06:51;2.80;;;1.90;;
13753;SDS011;6948;51.216;6.778;2022-11-15T16:09:20;3.93;;;2.00;;
13753;SDS011;6948;51.216;6.778;2022-11-15T16:12:06;3.13;;;2.10;;
13753;SDS011;6948;51.216;6.778;2022-11-15T16:14:32;5.23;;;2.10;;
13753;SDS011;6948;51.216;6.778;2022-11-15T16:16:58;4.00;;;2.47;;
13753;SDS011;6948;51.216;6.778;2022-11-15T16:19:24;3.90;;;2.50;;
13753;SDS011;6948;51.216;6.778;2022-11-15T16:21:50;6.53;;;3.77;;
13753;SDS011;6948;51.216;6.778;2022-11-15T16:24:17;3.17;;;2.20;;
13753;SDS011;6948;51.216;6.778;2022-11-15T16:26:43;5.13;;;2.20;;
13753;SDS011;6948;51.216;6.778;2022-11-15T16:29:10;3.50;;;2.10;;
13753;SDS011;6948;51.216;6.778;2022-11-15T16:31:37;2.70;;;1.90;;
13753;SDS011;6948;51.216;6.778;2022-11-15T16:34:03;2.87;;;2.07;;
13753;SDS011;6948;51.216;6.778;2022-11-15T16:36:30;4.67;;;2.43;;
13753;SDS011;6948;51.216;6.778;2022-11-15T16:38:57;3.80;;;2.17;;
13753;SDS011;6948;51.216;6.778;2022-11-15T16:41:23;2.87;;;2.10;;
13753;SDS011;6948;51.216;6.778;2022-11-15T16:43:49;6.00;;;2.43;;
13753;SDS011;6948;51.216;6.778;2022-11-15T16:46:16;3.37;;;2.10;;
13753;SDS011;6948;51.216;6.778;2022-11-15T16:48:43;5.93;;;2.47;;
13753;SDS011;6948;51.216;6.778;2022-11-15T16:51:09;4.83;;;2.20;;
13753;SDS011;6948;51.216;6.778;2022-11-15T16:53:35;5.03;;;2.47;;
13753;SDS011;6948;51.216;6.778;2022-11-15T16:56:04;4.07;;;2.43;;
13753;SDS011;6948;51.216;6.778;2022-11-15T16:58:38;6.03;;;2.17;;
13753;SDS011;6948;51.216;6.778;2022-11-15T17:01:04;4.57;;;2.50;;
13753;SDS011;6948;51.216;6.778;2022-11-15T17:03:30;3.33;;;2.13;;
13753;SDS011;6948;51.216;6.778;2022-11-15T17:05:57;3.73;;;2.20;;
13753;SDS011;6948;51.216;6.778;2022-11-15T17:08:24;4.57;;;2.27;;
13753;SDS011;6948;51.216;6.778;2022-11-15T17:10:50;2.80;;;2.20;;
13753;SDS011;6948;51.216;6.778;2022-11-15T17:13:16;2.70;;;2.17;;
13753;SDS011;6948;51.216;6.778;2022-11-15T17:15:42;3.27;;;2.40;;
13753;SDS011;6948;51.216;6.778;2022-11-15T17:18:10;2.70;;;2.10;;
13753;SDS011;6948;51.216;6.778;2022-11-15T17:20:37;2.93;;;2.20;;
13753;SDS011;6948;51.216;6.778;2022-11-15T17:23:10;4.40;;;2.20;;
13753;SDS011;6948;51.216;6.778;2022-11-15T17:25:38;4.13;;;2.30;;
13753;SDS011;6948;51.216;6.778;2022-11-15T17:28:04;3.87;;;2.40;;
13753;SDS011;6948;51.216;6.778;2022-11-15T17:30:30;3.60;;;2.00;;
13753;SDS011;6948;51.216;6.778;2022-11-15T17:32:56;5.63;;;2.37;;
13753;SDS011;6948;51.216;6.778;2022-11-15T17:35:22;3.30;;;2.10;;
13753;SDS011;6948;51.216;6.778;2022-11-15T17:37:48;3.23;;;2.33;;
13753;SDS011;6948;51.216;6.778;2022-11-15T17:40:15;2.67;;;2.20;;
13753;SDS011;6948;51.216;6.778;2022-11-15T17:42:41;4.37;;;2.40;;
13753;SDS011;6948;51.216;6.778;2022-11-15T17:45:07;4.00;;;2.20;;
13753;SDS011;6948;51.216;6.778;2022-11-15T17:47:33;3.07;;;2.47;;
13753;SDS011;6948;51.216;6.778;2022-11-15T17:49:59;2.80;;;2.20;;
13753;SDS011;6948;51.216;6.778;2022-11-15T17:52:25;3.03;;;2.00;;
13753;SDS011;6948;51.216;6.778;2022-11-15T17:54:51;3.60;;;2.30;;
13753;SDS011;6948;51.216;6.778;2022-11-15T17:57:17;3.03;;;2.30;;
13753;SDS011;6948;51.216;6.778;2022-11-15T17:59:43;3.70;;;2.10;;
13753;SDS011;6948;51.216;6.778;2022-11-15T18:02:09;2.80;;;2.20;;
13753;SDS011;6948;51.216;6.778;2022-11-15T18:04:35;4.97;;;2.20;;
13753;SDS011;6948;51.216;6.778;2022-11-15T18:07:01;2.90;;;2.23;;
13753;SDS011;6948;51.216;6.778;2022-11-15T18:09:27;3.17;;;2.20;;
13753;SDS011;6948;51.216;6.778;2022-11-15T18:11:53;2.47;;;2.20;;
13753;SDS011;6948;51.216;6.778;2022-11-15T18:14:19;3.20;;;2.17;;
13753;SDS011;6948;51.216;6.778;2022-11-15T18:16:45;4.53;;;2.47;;
13753;SDS011;6948;51.216;6.778;2022-11-15T18:19:11;5.10;;;2.60;;
13753;SDS011;6948;51.216;6.778;2022-11-15T18:21:39;3.87;;;2.50;;
13753;SDS011;6948;51.216;6.778;2022-11-15T18:24:21;4.07;;;2.30;;
13753;SDS011;6948;51.216;6.778;2022-11-15T18:26:47;3.93;;;2.50;;
13753;SDS011;6948;51.216;6.778;2022-11-15T18:29:13;3.03;;;2.17;;
13753;SDS011;6948;51.216;6.778;2022-11-15T18:31:39;3.17;;;2.60;;
13753;SDS011;6948;51.216;6.778;2022-11-15T18:34:07;2.77;;;2.40;;
13753;SDS011;6948;51.216;6.778;2022-11-15T18:36:33;3.40;;;2.73;;
13753;SDS011;6948;51.216;6.778;2022-11-15T18:39:00;4.33;;;2.80;;
13753;SDS011;6948;51.216;6.778;2022-11-15T18:41:28;4.80;;;2.60;;
13753;SDS011;6948;51.216;6.778;2022-11-15T18:43:58;4.23;;;2.80;;
13753;SDS011;6948;51.216;6.778;2022-11-15T18:46:26;4.43;;;2.50;;
13753;SDS011;6948;51.216;6.778;2022-11-15T18:49:09;6.07;;;3.07;;
13753;SDS011;6948;51.216;6.778;2022-11-15T18:51:39;3.93;;;2.40;;
13753;SDS011;6948;51.216;6.778;2022-11-15T18:54:12;3.93;;;3.00;;
13753;SDS011;6948;51.216;6.778;2022-11-15T18:56:42;5.33;;;3.40;;
13753;SDS011;6948;51.216;6.778;2022-11-15T18:59:11;4.70;;;3.10;;
13753;SDS011;6948;51.216;6.778;2022-11-15T19:01:38;5.43;;;3.40;;
13753;SDS011;6948;51.216;6.778;2022-11-15T19:06:46;3.63;;;2.93;;
13753;SDS011;6948;51.216;6.778;2022-11-15T19:09:19;3.93;;;3.50;;
13753;SDS011;6948;51.216;6.778;2022-11-15T19:11:46;3.93;;;3.33;;
13753;SDS011;6948;51.216;6.778;2022-11-15T19:14:13;4.83;;;3.87;;
13753;SDS011;6948;51.216;6.778;2022-11-15T19:16:40;5.57;;;4.33;;
13753;SDS011;6948;51.216;6.778;2022-11-15T19:19:13;8.30;;;7.23;;
13753;SDS011;6948;51.216;6.778;2022-11-15T19:21:39;7.60;;;5.07;;
13753;SDS011;6948;51.216;6.778;2022-11-15T19:24:06;5.57;;;4.67;;
13753;SDS011;6948;51.216;6.778;2022-11-15T19:26:32;6.40;;;5.17;;
13753;SDS011;6948;51.216;6.778;2022-11-15T19:29:04;6.07;;;4.83;;
13753;SDS011;6948;51.216;6.778;2022-11-15T19:31:31;7.47;;;5.03;;
13753;SDS011;6948;51.216;6.778;2022-11-15T19:33:58;6.63;;;5.43;;
13753;SDS011;6948;51.216;6.778;2022-11-15T19:36:28;6.10;;;5.50;;
13753;SDS011;6948;51.216;6.778;2022-11-15T19:38:59;7.10;;;5.20;;
13753;SDS011;6948;51.216;6.778;2022-11-15T19:41:29;6.53;;;4.90;;
13753;SDS011;6948;51.216;6.778;2022-11-15T19:43:55;8.60;;;5.27;;
13753;SDS011;6948;51.216;6.778;2022-11-15T19:46:22;6.80;;;5.23;;
13753;SDS011;6948;51.216;6.778;2022-11-15T19:48:48;7.93;;;5.60;;
13753;SDS011;6948;51.216;6.778;2022-11-15T19:51:16;7.07;;;4.97;;
13753;SDS011;6948;51.216;6.778;2022-11-15T19:53:43;5.83;;;4.67;;
13753;SDS011;6948;51.216;6.778;2022-11-15T19:56:10;5.77;;;4.77;;
13753;SDS011;6948;51.216;6.778;2022-11-15T19:58:37;5.00;;;4.50;;
13753;SDS011;6948;51.216;6.778;2022-11-15T20:01:04;6.97;;;4.90;;
13753;SDS011;6948;51.216;6.778;2022-11-15T20:03:30;6.93;;;5.30;;
13753;SDS011;6948;51.216;6.778;2022-11-15T20:06:01;5.43;;;4.70;;
13753;SDS011;6948;51.216;6.778;2022-11-15T20:08:27;5.20;;;4.70;;
13753;SDS011;6948;51.216;6.778;2022-11-15T20:10:53;6.03;;;5.43;;
13753;SDS011;6948;51.216;6.778;2022-11-15T20:13:19;6.67;;;5.27;;
13753;SDS011;6948;51.216;6.778;2022-11-15T20:15:45;7.33;;;5.00;;
13753;SDS011;6948;51.216;6.778;2022-11-15T20:18:11;6.07;;;5.30;;
13753;SDS011;6948;51.216;6.778;2022-11-15T20:20:38;7.10;;;5.50;;
13753;SDS011;6948;51.216;6.778;2022-11-15T20:23:04;6.07;;;5.23;;
13753;SDS011;6948;51.216;6.778;2022-11-15T20:25:30;6.57;;;5.77;;
13753;SDS011;6948;51.216;6.778;2022-11-15T20:27:56;7.03;;;5.43;;
13753;SDS011;6948;51.216;6.778;2022-11-15T20:30:22;6.37;;;5.50;;
13753;SDS011;6948;51.216;6.778;2022-11-15T20:32:48;6.13;;;5.53;;
13753;SDS011;6948;51.216;6.778;2022-11-15T20:35:14;6.23;;;5.60;;
13753;SDS011;6948;51.216;6.778;2022-11-15T20:37:40;7.30;;;5.37;;
13753;SDS011;6948;51.216;6.778;2022-11-15T20:40:06;6.33;;;5.43;;
13753;SDS011;6948;51.216;6.778;2022-11-15T20:42:33;6.20;;;5.60;;
13753;SDS011;6948;51.216;6.778;2022-11-15T20:44:59;6.07;;;5.57;;
13753;SDS011;6948;51.216;6.778;2022-11-15T20:47:25;7.07;;;5.23;;
13753;SDS011;6948;51.216;6.778;2022-11-15T20:49:51;7.03;;;5.67;;
13753;SDS011;6948;51.216;6.778;2022-11-15T20:52:19;6.00;;;5.50;;
13753;SDS011;6948;51.216;6.778;2022-11-15T20:54:45;5.80;;;5.23;;
13753;SDS011;6948;51.216;6.778;2022-11-15T20:57:11;6.73;;;5.80;;
13753;SDS011;6948;51.216;6.778;2022-11-15T20:59:37;6.10;;;5.47;;
13753;SDS011;6948;51.216;6.778;2022-11-15T21:02:04;6.70;;;5.80;;
13753;SDS011;6948;51.216;6.778;2022-11-15T21:04:30;6.03;;;5.50;;
13753;SDS011;6948;51.216;6.778;2022-11-15T21:06:56;6.67;;;5.23;;
13753;SDS011;6948;51.216;6.778;2022-11-15T21:09:22;6.70;;;5.87;;
13753;SDS011;6948;51.216;6.778;2022-11-15T21:12:10;6.40;;;5.73;;
13753;SDS011;6948;51.216;6.778;2022-11-15T21:14:39;6.13;;;5.53;;
13753;SDS011;6948;51.216;6.778;2022-11-15T21:17:05;6.37;;;5.60;;
13753;SDS011;6948;51.216;6.778;2022-11-15T21:19:32;7.00;;;6.10;;
13753;SDS011;6948;51.216;6.778;2022-11-15T21:21:58;6.33;;;5.73;;
13753;SDS011;6948;51.216;6.778;2022-11-15T21:24:24;7.43;;;5.80;;
13753;SDS011;6948;51.216;6.778;2022-11-15T21:26:51;6.70;;;5.97;;
13753;SDS011;6948;51.216;6.778;2022-11-15T21:29:17;7.17;;;5.87;;
13753;SDS011;6948;51.216;6.778;2022-11-15T21:31:44;6.67;;;6.07;;
13753;SDS011;6948;51.216;6.778;2022-11-15T21:34:10;7.00;;;5.63;;
13753;SDS011;6948;51.216;6.778;2022-11-15T21:36:39;6.27;;;5.67;;
13753;SDS011;6948;51.216;6.778;2022-11-15T21:39:05;6.50;;;5.90;;
13753;SDS011;6948;51.216;6.778;2022-11-15T21:41:31;6.50;;;5.53;;
13753;SDS011;6948;51.216;6.778;2022-11-15T21:43:58;7.27;;;6.10;;
13753;SDS011;6948;51.216;6.778;2022-11-15T21:46:24;6.73;;;5.70;;
13753;SDS011;6948;51.216;6.778;2022-11-15T21:48:50;6.90;;;5.83;;
13753;SDS011;6948;51.216;6.778;2022-11-15T21:51:16;6.50;;;5.80;;
13753;SDS011;6948;51.216;6.778;2022-11-15T21:53:42;7.67;;;5.97;;
13753;SDS011;6948;51.216;6.778;2022-11-15T21:56:08;6.63;;;5.93;;